createdAt,value
2022-10-23T00:00:57.177Z,45.72
2022-10-23T00:01:57.120Z,45.47
2022-10-23T00:02:57.183Z,45.57
2022-10-23T00:03:57.126Z,45.97
2022-10-23T00:04:57.080Z,46.07
2022-10-23T00:05:57.128Z,46.17
2022-10-23T00:06:57.130Z,46.28
2022-10-23T00:07:57.101Z,46.33
2022-10-23T00:08:57.041Z,46.38
2022-10-23T00:09:57.058Z,46.49
2022-10-23T00:10:57.021Z,46.23
2022-10-23T00:11:57.086Z,46.64
2022-10-23T00:12:57.020Z,46.49
2022-10-23T00:13:57.011Z,46.69
2022-10-23T00:14:56.977Z,46.54
2022-10-23T00:15:56.999Z,46.85
2022-10-23T00:16:56.959Z,46.69
2022-10-23T00:17:57.053Z,46.87
2022-10-23T00:18:56.946Z,46.90
2022-10-23T00:19:56.991Z,47.03
2022-10-23T00:20:56.930Z,46.98
2022-10-23T00:21:56.931Z,47.30
2022-10-23T00:22:56.900Z,47.41
2022-10-23T00:23:56.996Z,47.60
2022-10-23T00:24:56.887Z,47.63
2022-10-23T00:25:56.894Z,47.68
2022-10-23T00:26:56.917Z,47.96
2022-10-23T00:27:56.881Z,48.15
2022-10-23T00:28:56.846Z,48.29
2022-10-23T00:29:56.895Z,48.57
2022-10-23T00:30:56.854Z,48.69
2022-10-23T00:31:56.815Z,48.89
2022-10-23T00:32:56.804Z,49.00
2022-10-23T00:33:56.846Z,49.32
2022-10-23T00:34:56.784Z,49.26
2022-10-23T00:35:56.783Z,49.41
2022-10-23T00:36:56.823Z,49.88
2022-10-23T00:37:56.756Z,50.06
2022-10-23T00:38:56.735Z,50.12
2022-10-23T00:39:56.737Z,50.28
2022-10-23T00:40:56.723Z,50.74
2022-10-23T00:41:56.727Z,50.64
2022-10-23T00:42:56.764Z,50.83
2022-10-23T00:43:56.686Z,51.02
2022-10-23T00:44:56.684Z,51.17
2022-10-23T00:45:56.682Z,51.43
2022-10-23T00:46:56.654Z,51.40
2022-10-23T00:47:56.664Z,51.49
2022-10-23T00:48:56.803Z,51.72
2022-10-23T00:49:56.629Z,51.97
2022-10-23T00:50:56.629Z,52.04
2022-10-23T00:51:56.665Z,51.91
2022-10-23T00:52:56.597Z,51.81
2022-10-23T00:54:01.415Z,52.01
2022-10-23T00:54:56.588Z,52.07
2022-10-23T00:55:56.574Z,52.27
2022-10-23T00:56:56.552Z,52.27
2022-10-23T00:57:56.605Z,52.70
2022-10-23T00:58:56.538Z,52.76
2022-10-23T00:59:56.551Z,52.60
2022-10-23T01:02:14.582Z,65.18
2022-10-23T01:03:15.299Z,61.47
2022-10-23T01:04:15.226Z,59.87
2022-10-23T01:05:15.295Z,58.77
2022-10-23T01:06:15.307Z,57.51
2022-10-23T01:07:15.217Z,57.04
2022-10-23T01:08:15.197Z,56.80
2022-10-23T01:09:15.261Z,56.26
2022-10-23T01:10:15.242Z,56.00
2022-10-23T01:11:15.189Z,55.92
2022-10-23T01:12:15.159Z,55.70
2022-10-23T01:13:15.217Z,55.51
2022-10-23T01:14:15.161Z,55.44
2022-10-23T01:15:15.154Z,55.15
2022-10-23T01:16:15.130Z,55.18
2022-10-23T01:17:15.179Z,55.00
2022-10-23T01:18:15.099Z,55.26
2022-10-23T01:19:15.150Z,55.22
2022-10-23T01:20:15.097Z,55.26
2022-10-23T01:21:15.113Z,55.04
2022-10-23T01:22:15.194Z,55.37
2022-10-23T01:23:15.086Z,55.51
2022-10-23T01:24:15.104Z,55.40
2022-10-23T01:25:15.062Z,55.44
2022-10-23T01:26:15.099Z,55.15
2022-10-23T01:27:15.018Z,55.37
2022-10-23T01:28:14.996Z,55.33
2022-10-23T01:29:14.992Z,55.15
2022-10-23T01:30:14.983Z,55.29
2022-10-23T01:31:14.983Z,55.62
2022-10-23T01:32:15.052Z,55.55
2022-10-23T01:33:14.965Z,55.78
2022-10-23T01:34:14.969Z,55.62
2022-10-23T01:35:14.976Z,55.81
2022-10-23T01:36:14.934Z,55.78
2022-10-23T01:37:14.913Z,56.00
2022-10-23T01:38:14.922Z,55.92
2022-10-23T01:39:14.953Z,55.85
2022-10-23T01:40:14.967Z,55.96
2022-10-23T01:41:14.874Z,56.00
2022-10-23T01:42:14.864Z,56.15
2022-10-23T01:43:14.924Z,55.92
2022-10-23T01:44:14.854Z,55.89
2022-10-23T01:45:14.923Z,56.08
2022-10-23T01:46:14.846Z,56.30
2022-10-23T01:47:14.952Z,55.85
2022-10-23T01:48:14.811Z,55.85
2022-10-23T01:49:14.812Z,55.89
2022-10-23T01:50:14.882Z,55.92
2022-10-23T01:51:14.772Z,55.89
2022-10-23T01:52:14.805Z,55.85
2022-10-23T01:53:14.772Z,55.96
2022-10-23T01:54:14.750Z,55.92
2022-10-23T01:55:14.773Z,55.62
2022-10-23T01:56:14.791Z,56.08
2022-10-23T01:57:14.726Z,55.66
2022-10-23T01:58:14.743Z,55.85
2022-10-23T01:59:14.769Z,55.51
2022-10-23T02:00:14.745Z,55.89
2022-10-23T02:01:14.881Z,55.74
2022-10-23T02:02:14.708Z,55.62
2022-10-23T02:03:14.665Z,55.81
2022-10-23T02:04:14.732Z,55.66
2022-10-23T02:05:14.634Z,55.26
2022-10-23T02:06:14.683Z,55.37
2022-10-23T02:07:14.688Z,55.37
2022-10-23T02:08:14.668Z,55.37
2022-10-23T02:09:14.618Z,55.26
2022-10-23T02:10:14.668Z,55.59
2022-10-23T02:11:14.577Z,55.55
2022-10-23T02:12:14.624Z,55.62
2022-10-23T02:13:14.637Z,55.55
2022-10-23T02:14:14.569Z,55.55
2022-10-23T02:15:14.526Z,55.92
2022-10-23T02:16:14.573Z,55.89
2022-10-23T02:17:14.670Z,56.19
2022-10-23T02:18:14.559Z,55.81
2022-10-23T02:19:14.592Z,55.96
2022-10-23T02:20:14.481Z,55.92
2022-10-23T02:21:14.480Z,56.08
2022-10-23T02:22:14.493Z,56.04
2022-10-23T02:23:14.483Z,55.85
2022-10-23T02:24:14.527Z,55.89
2022-10-23T02:25:14.486Z,55.89
2022-10-23T02:26:14.576Z,55.78
2022-10-23T02:27:14.409Z,56.23
2022-10-23T02:28:14.554Z,56.04
2022-10-23T02:29:14.567Z,56.11
2022-10-23T02:30:14.487Z,56.19
2022-10-23T02:31:14.373Z,56.04
2022-10-23T02:32:14.456Z,56.26
2022-10-23T02:33:14.595Z,56.11
2022-10-23T02:34:14.450Z,56.08
2022-10-23T02:35:14.452Z,56.38
2022-10-23T02:36:14.459Z,56.30
2022-10-23T02:37:14.395Z,56.26
2022-10-23T02:38:14.451Z,56.19
2022-10-23T02:39:14.305Z,56.42
2022-10-23T02:40:14.308Z,56.42
2022-10-23T02:41:14.323Z,56.76
2022-10-23T02:42:14.273Z,56.46
2022-10-23T02:43:14.271Z,56.49
2022-10-23T02:44:14.289Z,56.42
2022-10-23T02:45:14.368Z,56.34
2022-10-23T02:46:14.221Z,56.49
2022-10-23T02:47:14.258Z,56.73
2022-10-23T02:48:14.244Z,56.46
2022-10-23T02:49:14.284Z,56.53
2022-10-23T02:50:14.199Z,56.49
2022-10-23T02:51:14.240Z,56.26
2022-10-23T02:52:14.176Z,56.23
2022-10-23T02:53:14.149Z,56.30
2022-10-23T02:54:14.155Z,56.38
2022-10-23T02:55:14.191Z,56.61
2022-10-23T02:56:14.138Z,56.42
2022-10-23T02:57:14.173Z,56.42
2022-10-23T02:58:14.180Z,56.30
2022-10-23T02:59:14.103Z,56.42
2022-10-23T03:00:14.163Z,56.38
2022-10-23T03:01:14.422Z,56.34
2022-10-23T03:02:14.147Z,56.15
2022-10-23T03:03:14.049Z,55.92
2022-10-23T03:04:14.168Z,56.11
2022-10-23T03:05:14.046Z,56.26
2022-10-23T03:06:14.120Z,55.89
2022-10-23T03:07:14.067Z,56.00
2022-10-23T03:08:14.050Z,56.00
2022-10-23T03:09:13.995Z,56.00
2022-10-23T03:10:13.990Z,55.78
2022-10-23T03:11:14.059Z,56.08
2022-10-23T03:12:13.971Z,55.89
2022-10-23T03:13:14.045Z,56.00
2022-10-23T03:14:13.955Z,56.04
2022-10-23T03:15:13.932Z,56.08
2022-10-23T03:16:13.939Z,56.23
2022-10-23T03:17:13.986Z,56.26
2022-10-23T03:18:13.953Z,56.26
2022-10-23T03:19:13.972Z,56.30
2022-10-23T03:20:13.895Z,56.34
2022-10-23T03:21:13.873Z,56.61
2022-10-23T03:22:13.952Z,56.69
2022-10-23T03:23:13.905Z,56.73
2022-10-23T03:24:13.844Z,56.92
2022-10-23T03:25:13.883Z,57.19
2022-10-23T03:26:13.900Z,57.15
2022-10-23T03:27:13.813Z,56.92
2022-10-23T03:28:13.860Z,57.15
2022-10-23T03:29:14.070Z,57.35
2022-10-23T03:30:13.867Z,57.47
2022-10-23T03:31:13.784Z,57.83
2022-10-23T03:32:13.841Z,57.39
2022-10-23T03:33:13.809Z,57.51
2022-10-23T03:34:13.756Z,57.75
2022-10-23T03:35:13.735Z,58.11
2022-10-23T03:36:13.773Z,58.15
2022-10-23T03:37:13.722Z,57.87
2022-10-23T03:38:13.767Z,58.24
2022-10-23T03:39:13.773Z,58.24
2022-10-23T03:40:13.701Z,58.36
2022-10-23T03:41:13.665Z,58.65
2022-10-23T03:42:13.732Z,58.81
2022-10-23T03:43:13.699Z,58.77
2022-10-23T03:44:13.647Z,58.85
2022-10-23T03:45:13.711Z,59.15
2022-10-23T03:46:13.634Z,59.02
2022-10-23T03:47:13.629Z,59.32
2022-10-23T03:48:13.622Z,59.32
2022-10-23T03:49:13.633Z,59.32
2022-10-23T03:50:13.673Z,59.66
2022-10-23T03:51:13.654Z,59.74
2022-10-23T03:52:13.589Z,59.92
2022-10-23T03:53:13.556Z,59.70
2022-10-23T03:54:13.615Z,59.87
2022-10-23T03:55:13.591Z,60.13
2022-10-23T03:56:13.535Z,60.22
2022-10-23T03:57:13.526Z,60.22
2022-10-23T03:58:13.541Z,60.22
2022-10-23T03:59:13.568Z,59.96
2022-10-23T04:00:13.486Z,60.13
2022-10-23T04:01:13.573Z,60.13
2022-10-23T04:02:13.611Z,60.39
2022-10-23T04:03:13.480Z,60.26
2022-10-23T04:04:13.443Z,60.48
2022-10-23T04:05:13.596Z,60.13
2022-10-23T04:06:13.439Z,60.53
2022-10-23T04:07:13.505Z,60.57
2022-10-23T04:08:17.601Z,60.66
2022-10-23T04:10:13.381Z,60.48
2022-10-23T04:11:13.413Z,60.44
2022-10-23T04:12:13.394Z,60.53
2022-10-23T04:13:13.424Z,60.39
2022-10-23T04:14:13.610Z,60.88
2022-10-23T04:15:13.335Z,60.57
2022-10-23T04:16:13.333Z,61.06
2022-10-23T04:17:13.416Z,60.70
2022-10-23T04:18:13.320Z,60.84
2022-10-23T04:19:13.325Z,61.01
2022-10-23T04:20:13.354Z,61.42
2022-10-23T04:21:13.340Z,61.38
2022-10-23T04:22:13.310Z,61.24
2022-10-23T04:23:13.267Z,61.38
2022-10-23T04:24:13.317Z,61.19
2022-10-23T04:25:13.236Z,61.10
2022-10-23T04:26:13.230Z,61.47
2022-10-23T04:27:13.263Z,61.60
2022-10-23T04:28:13.218Z,61.74
2022-10-23T04:29:13.245Z,61.97
2022-10-23T04:30:13.282Z,61.60
2022-10-23T04:31:13.190Z,62.11
2022-10-23T04:32:13.191Z,61.79
2022-10-23T04:33:13.266Z,61.88
2022-10-23T04:34:13.207Z,62.11
2022-10-23T04:35:13.152Z,61.92
2022-10-23T04:36:13.148Z,62.11
2022-10-23T04:37:13.182Z,62.39
2022-10-23T04:38:13.221Z,62.11
2022-10-23T04:39:13.107Z,62.34
2022-10-23T04:40:13.095Z,62.48
2022-10-23T04:41:13.127Z,62.29
2022-10-23T04:42:13.131Z,62.86
2022-10-23T04:43:13.130Z,62.44
2022-10-23T04:44:13.073Z,62.48
2022-10-23T04:45:13.158Z,62.86
2022-10-23T04:46:13.027Z,63.05
2022-10-23T04:47:13.016Z,62.96
2022-10-23T04:48:13.131Z,62.96
2022-10-23T04:49:13.048Z,62.96
2022-10-23T04:50:13.024Z,63.10
2022-10-23T04:51:13.055Z,63.19
2022-10-23T04:52:13.038Z,62.96
2022-10-23T04:53:12.961Z,62.77
2022-10-23T04:54:12.975Z,62.77
2022-10-23T04:55:12.945Z,62.96
2022-10-23T04:56:12.933Z,62.67
2022-10-23T04:57:13.020Z,62.72
2022-10-23T04:58:12.936Z,63.00
2022-10-23T04:59:12.905Z,63.19
2022-10-23T05:00:12.912Z,63.05
2022-10-23T05:01:13.011Z,63.53
2022-10-23T05:02:12.868Z,63.00
2022-10-23T05:03:12.936Z,63.29
2022-10-23T05:04:12.843Z,62.91
2022-10-23T05:05:12.891Z,63.24
2022-10-23T05:06:12.863Z,63.10
2022-10-23T05:07:12.911Z,62.91
2022-10-23T05:08:15.595Z,62.77
2022-10-23T05:09:12.911Z,62.86
2022-10-23T05:10:12.803Z,62.91
2022-10-23T05:11:12.918Z,62.58
2022-10-23T05:12:12.741Z,62.72
2022-10-23T05:13:12.782Z,62.81
2022-10-23T05:14:12.805Z,62.44
2022-10-23T05:15:12.757Z,62.53
2022-10-23T05:16:12.748Z,62.29
2022-10-23T05:17:12.735Z,62.67
2022-10-23T05:18:12.815Z,62.53
2022-10-23T05:19:12.694Z,62.77
2022-10-23T05:20:12.704Z,62.81
2022-10-23T05:21:12.705Z,62.77
2022-10-23T05:22:12.713Z,62.81
2022-10-23T05:23:12.606Z,62.81
2022-10-23T05:24:12.673Z,62.72
2022-10-23T05:25:12.661Z,62.53
2022-10-23T05:26:12.617Z,62.39
2022-10-23T05:27:12.594Z,62.39
2022-10-23T05:28:12.615Z,62.67
2022-10-23T05:29:12.578Z,62.34
2022-10-23T05:30:12.542Z,62.25
2022-10-23T05:31:12.546Z,62.53
2022-10-23T05:32:12.560Z,62.39
2022-10-23T05:33:12.675Z,62.02
2022-10-23T05:34:13.481Z,61.97
2022-10-23T05:35:12.573Z,62.25
2022-10-23T05:36:12.510Z,62.39
2022-10-23T05:37:12.611Z,62.16
2022-10-23T05:38:12.462Z,62.53
2022-10-23T05:39:12.442Z,62.34
2022-10-23T05:40:12.438Z,62.25
2022-10-23T05:41:12.753Z,62.39
2022-10-23T05:42:12.420Z,62.77
2022-10-23T05:43:12.484Z,62.29
2022-10-23T05:44:12.407Z,62.25
2022-10-23T05:45:12.409Z,62.29
2022-10-23T05:46:12.427Z,62.29
2022-10-23T05:47:12.378Z,62.11
2022-10-23T05:48:29.786Z,61.88
2022-10-23T05:49:12.363Z,62.48
2022-10-23T05:50:12.356Z,62.34
2022-10-23T05:51:12.355Z,62.39
2022-10-23T05:52:12.397Z,62.20
2022-10-23T05:53:12.420Z,62.48
2022-10-23T05:54:12.363Z,62.34
2022-10-23T05:55:12.303Z,62.39
2022-10-23T05:56:12.302Z,62.20
2022-10-23T05:57:12.390Z,62.06
2022-10-23T05:58:12.333Z,62.11
2022-10-23T05:59:12.257Z,62.11
2022-10-23T06:00:12.261Z,62.06
2022-10-23T06:01:12.324Z,61.92
2022-10-23T06:02:12.351Z,62.39
2022-10-23T06:03:12.251Z,62.16
2022-10-23T06:04:12.195Z,62.34
2022-10-23T06:05:12.254Z,62.34
2022-10-23T06:06:12.406Z,62.16
2022-10-23T06:07:12.189Z,62.29
2022-10-23T06:08:12.283Z,62.25
2022-10-23T06:09:12.172Z,62.16
2022-10-23T06:10:12.194Z,62.25
2022-10-23T06:11:12.146Z,62.20
2022-10-23T06:12:12.144Z,62.29
2022-10-23T06:13:12.141Z,62.25
2022-10-23T06:14:12.141Z,62.53
2022-10-23T06:15:12.086Z,62.11
2022-10-23T06:16:12.146Z,62.16
2022-10-23T06:17:12.118Z,62.29
2022-10-23T06:18:12.151Z,62.06
2022-10-23T06:19:12.052Z,61.69
2022-10-23T06:20:12.033Z,61.92
2022-10-23T06:21:12.049Z,61.65
2022-10-23T06:22:12.132Z,61.79
2022-10-23T06:23:12.013Z,61.69
2022-10-23T06:24:12.074Z,61.60
2022-10-23T06:25:11.990Z,61.69
2022-10-23T06:26:12.037Z,61.83
2022-10-23T06:27:12.046Z,61.65
2022-10-23T06:28:13.357Z,61.33
2022-10-23T06:29:12.011Z,61.24
2022-10-23T06:30:11.944Z,61.33
2022-10-23T06:31:12.006Z,60.79
2022-10-23T06:32:11.932Z,61.15
2022-10-23T06:33:12.034Z,61.06
2022-10-23T06:34:11.985Z,61.01
2022-10-23T06:35:11.964Z,60.75
2022-10-23T06:36:11.906Z,60.53
2022-10-23T06:37:11.887Z,60.13
2022-10-23T06:38:11.889Z,59.87
2022-10-23T06:39:11.901Z,59.79
2022-10-23T06:40:11.926Z,59.62
2022-10-23T06:41:11.878Z,59.23
2022-10-23T06:42:11.860Z,59.28
2022-10-23T06:43:11.841Z,59.28
2022-10-23T06:44:11.819Z,59.19
2022-10-23T06:45:11.852Z,58.61
2022-10-23T06:46:11.806Z,58.65
2022-10-23T06:47:11.783Z,58.52
2022-10-23T06:48:11.820Z,58.24
2022-10-23T06:49:11.766Z,57.75
2022-10-23T06:50:14.597Z,57.63
2022-10-23T06:51:11.788Z,57.04
2022-10-23T06:52:18.530Z,56.57
2022-10-23T06:53:11.746Z,56.49
2022-10-23T06:54:11.706Z,56.26
2022-10-23T06:55:11.693Z,56.00
2022-10-23T06:56:11.675Z,55.74
2022-10-23T06:57:11.782Z,55.89
2022-10-23T06:58:11.669Z,54.96
2022-10-23T06:59:11.669Z,54.82
2022-10-23T07:00:11.640Z,54.42
2022-10-23T07:01:11.806Z,53.93
2022-10-23T07:02:11.614Z,53.62
2022-10-23T07:03:11.663Z,53.20
2022-10-23T07:04:11.651Z,52.50
2022-10-23T07:05:13.650Z,52.07
2022-10-23T07:06:11.600Z,51.72
2022-10-23T07:07:11.691Z,51.11
2022-10-23T07:08:11.604Z,50.80
2022-10-23T07:09:11.546Z,50.58
2022-10-23T07:10:11.558Z,50.43
2022-10-23T07:11:11.568Z,50.03
2022-10-23T07:12:11.522Z,49.76
2022-10-23T07:13:11.580Z,49.62
2022-10-23T07:14:11.552Z,49.35
2022-10-23T07:15:11.496Z,49.06
2022-10-23T07:16:11.494Z,48.69
2022-10-23T07:17:11.583Z,48.46
2022-10-23T07:18:11.462Z,48.26
2022-10-23T07:19:11.527Z,48.23
2022-10-23T07:20:11.438Z,48.15
2022-10-23T07:21:11.465Z,48.04
2022-10-23T07:22:14.886Z,48.07
2022-10-23T07:23:11.465Z,47.82
2022-10-23T07:24:11.511Z,47.82
2022-10-23T07:25:11.450Z,47.71
2022-10-23T07:26:11.409Z,47.49
2022-10-23T07:27:11.457Z,47.25
2022-10-23T07:28:11.433Z,47.35
2022-10-23T07:29:11.365Z,47.25
2022-10-23T07:30:11.369Z,47.06
2022-10-23T07:31:11.359Z,46.49
2022-10-23T07:32:11.358Z,46.28
2022-10-23T07:33:11.375Z,46.43
2022-10-23T07:34:11.321Z,46.33
2022-10-23T07:35:11.362Z,46.17
2022-10-23T07:36:11.366Z,46.28
2022-10-23T07:37:11.272Z,46.23
2022-10-23T07:38:11.340Z,46.07
2022-10-23T07:39:11.316Z,45.97
2022-10-23T07:40:11.242Z,45.92
2022-10-23T07:41:11.586Z,45.72
2022-10-23T07:42:11.312Z,45.47
2022-10-23T07:43:11.259Z,45.27
2022-10-23T07:44:11.249Z,45.67
2022-10-23T07:45:11.269Z,45.17
2022-10-23T07:46:11.291Z,45.32
2022-10-23T07:47:11.233Z,45.12
2022-10-23T07:48:11.153Z,44.78
2022-10-23T07:49:11.143Z,45.12
2022-10-23T07:50:11.136Z,45.42
2022-10-23T07:51:11.194Z,45.62
2022-10-23T07:52:11.186Z,45.12
2022-10-23T07:53:11.230Z,44.83
2022-10-23T07:54:11.097Z,44.50
2022-10-23T07:55:11.139Z,44.69
2022-10-23T07:56:11.136Z,44.45
2022-10-23T07:57:11.071Z,44.21
2022-10-23T07:58:11.075Z,44.74
2022-10-23T07:59:11.047Z,44.35
2022-10-23T08:00:11.150Z,44.26
2022-10-23T08:01:11.098Z,44.17
2022-10-23T08:02:11.064Z,43.75
2022-10-23T08:03:11.010Z,43.47
2022-10-23T08:04:11.012Z,43.75
2022-10-23T08:05:11.045Z,43.75
2022-10-23T08:06:11.025Z,43.56
2022-10-23T08:07:11.191Z,43.11
2022-10-23T08:08:10.978Z,43.38
2022-10-23T08:09:10.944Z,43.25
2022-10-23T08:10:11.014Z,43.25
2022-10-23T08:11:10.952Z,42.63
2022-10-23T08:12:10.957Z,42.58
2022-10-23T08:13:11.315Z,42.50
2022-10-23T08:14:10.913Z,42.50
2022-10-23T08:15:10.945Z,42.45
2022-10-23T08:16:10.969Z,42.63
2022-10-23T08:17:10.882Z,42.15
2022-10-23T08:18:10.902Z,42.28
2022-10-23T08:19:10.914Z,42.45
2022-10-23T08:20:10.852Z,42.58
2022-10-23T08:21:10.840Z,42.50
2022-10-23T08:22:10.889Z,42.76
2022-10-23T08:23:10.836Z,42.94
2022-10-23T08:24:10.808Z,42.76
2022-10-23T08:25:10.837Z,43.20
2022-10-23T08:26:10.786Z,43.29
2022-10-23T08:27:10.843Z,44.07
2022-10-23T08:28:10.807Z,44.21
2022-10-23T08:29:10.788Z,43.93
2022-10-23T08:30:10.737Z,43.79
2022-10-23T08:31:10.720Z,43.38
2022-10-23T08:32:10.781Z,43.25
2022-10-23T08:33:10.750Z,43.16
2022-10-23T08:34:10.723Z,43.02
2022-10-23T08:35:10.691Z,43.16
2022-10-23T08:36:10.707Z,43.56
2022-10-23T08:37:10.715Z,43.89
2022-10-23T08:38:10.701Z,44.21
2022-10-23T08:39:10.672Z,44.59
2022-10-23T08:40:10.809Z,45.07
2022-10-23T08:41:10.796Z,45.22
2022-10-23T08:43:09.607Z,45.37
2022-10-23T08:44:10.653Z,45.22
2022-10-23T08:45:10.634Z,44.93
2022-10-23T08:46:10.644Z,44.64
2022-10-23T08:47:10.644Z,45.07
2022-10-23T08:48:10.622Z,45.37
2022-10-23T08:49:10.603Z,45.47
2022-10-23T08:50:10.594Z,45.27
2022-10-23T08:51:10.527Z,45.47
2022-10-23T08:52:13.264Z,45.77
2022-10-23T08:53:10.570Z,45.57
2022-10-23T08:54:10.516Z,45.67
2022-10-23T08:55:10.494Z,46.69
2022-10-23T08:56:10.538Z,47.25
2022-10-23T08:57:10.482Z,48.18
2022-10-23T08:58:10.451Z,48.29
2022-10-23T08:59:10.509Z,48.46
2022-10-23T09:00:10.426Z,49.00
2022-10-23T09:01:10.614Z,49.29
2022-10-23T09:02:10.677Z,49.79
2022-10-23T09:03:10.440Z,50.43
2022-10-23T09:04:10.496Z,50.22
2022-10-23T09:05:10.395Z,49.62
2022-10-23T09:06:10.405Z,48.63
2022-10-23T09:07:10.420Z,48.15
2022-10-23T09:08:10.545Z,48.21
2022-10-23T09:09:10.437Z,49.23
2022-10-23T09:10:10.450Z,49.50
2022-10-23T09:11:10.381Z,50.19
2022-10-23T09:12:10.449Z,50.74
2022-10-23T09:13:10.295Z,51.84
2022-10-23T09:14:10.301Z,52.60
2022-10-23T09:15:10.289Z,53.51
2022-10-23T09:16:10.386Z,53.93
2022-10-23T09:17:10.329Z,54.28
2022-10-23T09:18:10.253Z,54.71
2022-10-23T09:19:12.136Z,54.93
2022-10-23T09:20:10.235Z,54.60
2022-10-23T09:21:10.263Z,55.62
2022-10-23T09:22:10.234Z,57.47
2022-10-23T09:23:10.253Z,59.40
2022-10-23T09:24:10.241Z,61.01
2022-10-23T09:25:10.380Z,61.19
2022-10-23T09:26:10.182Z,60.18
2022-10-23T09:27:10.190Z,60.04
2022-10-23T09:28:10.192Z,59.66
2022-10-23T09:29:10.163Z,59.62
2022-10-23T09:30:10.152Z,59.57
2022-10-23T09:31:10.191Z,60.04
2022-10-23T09:32:10.112Z,60.22
2022-10-23T09:33:10.265Z,60.79
2022-10-23T09:34:11.821Z,60.84
2022-10-23T09:35:10.137Z,59.02
2022-10-23T09:36:10.071Z,57.91
2022-10-23T09:37:10.087Z,56.26
2022-10-23T09:38:10.112Z,55.33
2022-10-23T09:39:10.061Z,55.55
2022-10-23T09:40:10.047Z,57.08
2022-10-23T09:41:10.035Z,57.47
2022-10-23T09:42:10.031Z,59.49
2022-10-23T09:43:10.010Z,61.15
2022-10-23T09:44:10.085Z,63.88
2022-10-23T09:45:10.029Z,66.96
2022-10-23T09:46:09.981Z,67.29
2022-10-23T09:47:09.963Z,66.96
2022-10-23T09:48:09.996Z,69.08
2022-10-23T09:49:09.948Z,70.84
2022-10-23T09:50:09.984Z,71.39
2022-10-23T09:51:09.931Z,71.15
2022-10-23T09:52:09.913Z,73.67
2022-10-23T09:53:09.904Z,77.16
2022-10-23T09:54:09.884Z,80.68
2022-10-23T09:55:09.963Z,78.84
2022-10-23T09:56:09.989Z,76.45
2022-10-23T09:57:09.899Z,77.01
2022-10-23T09:58:09.879Z,75.68
2022-10-23T09:59:09.909Z,72.45
2022-10-23T10:00:09.847Z,74.26
2022-10-23T10:01:10.076Z,76.80
2022-10-23T10:02:10.092Z,78.61
2022-10-23T10:03:09.804Z,86.02
2022-10-23T10:04:09.799Z,89.83
2022-10-23T10:05:09.789Z,87.74
2022-10-23T10:06:09.810Z,83.85
2022-10-23T10:07:09.820Z,81.15
2022-10-23T10:08:09.799Z,76.17
2022-10-23T10:09:09.823Z,73.67
2022-10-23T10:10:09.776Z,74.59
2022-10-23T10:11:09.789Z,79.44
2022-10-23T10:12:09.775Z,81.31
2022-10-23T10:13:14.199Z,84.36
2022-10-23T10:14:09.774Z,87.19
2022-10-23T10:15:09.682Z,85.93
2022-10-23T10:16:09.772Z,81.39
2022-10-23T10:17:09.675Z,80.29
2022-10-23T10:18:09.680Z,80.13
2022-10-23T10:19:09.763Z,79.14
2022-10-23T10:20:09.701Z,78.76
2022-10-23T10:21:09.656Z,77.95
2022-10-23T10:22:09.614Z,80.13
2022-10-23T10:23:09.686Z,81.47
2022-10-23T10:24:09.625Z,82.19
2022-10-23T10:25:09.595Z,81.95
2022-10-23T10:26:09.647Z,81.79
2022-10-23T10:27:09.611Z,81.47
2022-10-23T10:28:09.615Z,81.23
2022-10-23T10:29:09.603Z,84.02
2022-10-23T10:30:09.598Z,86.20
2022-10-23T10:31:09.578Z,85.75
2022-10-23T10:32:09.582Z,86.02
2022-10-23T10:33:09.535Z,85.05
2022-10-23T10:34:09.582Z,84.19
2022-10-23T10:35:09.622Z,82.76
2022-10-23T10:36:09.518Z,83.76
2022-10-23T10:37:09.530Z,85.75
2022-10-23T10:38:09.470Z,85.40
2022-10-23T10:39:09.468Z,84.62
2022-10-23T10:40:09.517Z,82.60
2022-10-23T10:41:09.444Z,80.36
2022-10-23T10:42:09.430Z,81.63
2022-10-23T10:43:09.454Z,82.11
2022-10-23T10:44:09.437Z,81.15
2022-10-23T10:45:09.410Z,82.11
2022-10-23T10:46:09.411Z,84.96
2022-10-23T10:47:09.502Z,85.75
2022-10-23T10:48:09.365Z,85.84
2022-10-23T10:49:09.419Z,88.68
2022-10-23T10:50:09.412Z,90.51
2022-10-23T10:51:09.332Z,94.21
2022-10-23T10:52:09.333Z,95.60
2022-10-23T10:53:09.357Z,102.37
2022-10-23T10:54:09.482Z,106.03
2022-10-23T10:55:09.287Z,107.74
2022-10-23T10:57:08.315Z,111.35
2022-10-23T10:58:09.262Z,115.37
2022-10-23T10:59:09.269Z,117.66
2022-10-23T11:00:09.297Z,123.15
2022-10-23T11:01:09.424Z,125.38
2022-10-23T11:02:09.495Z,123.42
2022-10-23T11:03:09.233Z,121.79
2022-10-23T11:04:09.224Z,124.16
2022-10-23T11:05:09.194Z,126.14
2022-10-23T11:06:09.190Z,125.47
2022-10-23T11:07:09.276Z,124.72
2022-10-23T11:08:09.249Z,128.38
2022-10-23T11:09:20.142Z,128.48
2022-10-23T11:10:09.256Z,122.24
2022-10-23T11:11:09.141Z,123.61
2022-10-23T11:12:09.172Z,121.62
2022-10-23T11:13:09.201Z,116.26
2022-10-23T11:14:09.152Z,113.87
2022-10-23T11:15:09.141Z,110.32
2022-10-23T11:16:09.102Z,107.12
2022-10-23T11:17:09.072Z,105.09
2022-10-23T11:18:09.082Z,105.62
2022-10-23T11:19:13.008Z,103.97
2022-10-23T11:20:09.055Z,101.25
2022-10-23T11:21:09.154Z,97.56
2022-10-23T11:22:09.071Z,96.71
2022-10-23T11:23:09.128Z,95.54
2022-10-23T11:25:08.049Z,95.73
2022-10-23T11:26:09.020Z,92.32
2022-10-23T11:27:08.980Z,90.51
2022-10-23T11:28:10.703Z,88.11
2022-10-23T11:29:08.972Z,83.26
2022-10-23T11:30:09.010Z,79.37
2022-10-23T11:31:11.978Z,76.73
2022-10-23T11:32:09.002Z,76.31
2022-10-23T11:33:09.000Z,74.33
2022-10-23T11:34:08.985Z,74.79
2022-10-23T11:35:08.997Z,73.93
2022-10-23T11:36:08.930Z,71.64
2022-10-23T11:37:08.874Z,70.60
2022-10-23T11:38:09.046Z,69.19
2022-10-23T11:39:08.912Z,69.02
2022-10-23T11:40:08.862Z,69.13
2022-10-23T11:41:08.833Z,69.48
2022-10-23T11:42:08.890Z,68.34
2022-10-23T11:43:08.841Z,69.31
2022-10-23T11:44:08.805Z,70.36
2022-10-23T11:45:08.813Z,70.72
2022-10-23T11:46:08.803Z,67.84
2022-10-23T11:47:08.802Z,67.84
2022-10-23T11:48:08.827Z,65.28
2022-10-23T11:49:08.794Z,65.38
2022-10-23T11:50:08.754Z,66.91
2022-10-23T11:51:08.782Z,68.79
2022-10-23T11:52:08.731Z,69.66
2022-10-23T11:53:16.509Z,71.15
2022-10-23T11:54:08.834Z,72.20
2022-10-23T11:55:08.710Z,70.78
2022-10-23T11:56:08.692Z,69.71
2022-10-23T11:57:10.520Z,68.90
2022-10-23T11:58:08.667Z,69.71
2022-10-23T11:59:08.781Z,69.95
2022-10-23T12:00:08.682Z,70.66
2022-10-23T12:01:08.801Z,71.15
2022-10-23T12:02:08.700Z,70.96
2022-10-23T12:03:08.618Z,69.83
2022-10-23T12:04:08.658Z,70.90
2022-10-23T12:05:08.701Z,73.47
2022-10-23T12:06:08.611Z,74.53
2022-10-23T12:07:07.602Z,76.73
2022-10-23T12:08:08.615Z,77.81
2022-10-23T12:09:08.625Z,79.52
2022-10-23T12:10:08.629Z,81.87
2022-10-23T12:11:08.531Z,81.79
2022-10-23T12:12:08.597Z,83.93
2022-10-23T12:13:08.555Z,84.79
2022-10-23T12:14:08.559Z,86.74
2022-10-23T12:15:09.594Z,86.20
2022-10-23T12:16:08.501Z,84.70
2022-10-23T12:17:08.508Z,87.01
2022-10-23T12:18:08.579Z,89.54
2022-10-23T12:19:08.511Z,90.71
2022-10-23T12:20:08.460Z,95.29
2022-10-23T12:21:08.894Z,95.71
2022-10-23T12:22:08.636Z,98.78
2022-10-23T12:23:08.416Z,101.99
2022-10-23T12:24:08.456Z,100.94
2022-10-23T12:25:08.409Z,101.62
2022-10-23T12:26:08.437Z,104.10
2022-10-23T12:27:08.458Z,106.98
2022-10-23T12:28:08.382Z,117.16
2022-10-23T12:29:08.448Z,121.79
2022-10-23T12:30:08.358Z,126.43
2022-10-23T12:31:08.383Z,131.63
2022-10-23T12:32:08.329Z,125.66
2022-10-23T12:33:08.362Z,121.62
2022-10-23T12:34:08.318Z,118.33
2022-10-23T12:35:08.568Z,115.37
2022-10-23T12:36:08.310Z,117.24
2022-10-23T12:37:08.284Z,120.12
2022-10-23T12:38:08.311Z,121.88
2022-10-23T12:39:10.861Z,119.52
2022-10-23T12:40:08.294Z,119.78
2022-10-23T12:41:08.234Z,115.53
2022-10-23T12:42:08.317Z,122.06
2022-10-23T12:43:08.248Z,132.15
2022-10-23T12:44:08.255Z,139.24
2022-10-23T12:45:08.266Z,141.37
2022-10-23T12:46:08.269Z,139.47
2022-10-23T12:47:08.224Z,147.51
2022-10-23T12:48:08.172Z,146.86
2022-10-23T12:49:08.287Z,149.37
2022-10-23T12:50:08.164Z,146.22
2022-10-23T12:51:08.144Z,146.35
2022-10-23T12:52:08.127Z,145.07
2022-10-23T12:53:08.187Z,147.78
2022-10-23T12:54:08.136Z,152.52
2022-10-23T12:55:08.216Z,153.65
2022-10-23T12:56:08.097Z,168.78